sensor_id;sensor_type;location;lat;lon;timestamp;P1;durP1;ratioP1;P2;durP2;ratioP2
43160;SDS011;40968;52.342;5.528;2023-06-26T00:01:01;20.02;;;8.95;;
43160;SDS011;40968;52.342;5.528;2023-06-26T00:03:28;19.60;;;9.35;;
43160;SDS011;40968;52.342;5.528;2023-06-26T00:05:55;16.70;;;8.55;;
43160;SDS011;40968;52.342;5.528;2023-06-26T00:08:25;20.52;;;9.63;;
43160;SDS011;40968;52.342;5.528;2023-06-26T00:10:52;16.63;;;9.32;;
43160;SDS011;40968;52.342;5.528;2023-06-26T00:13:19;18.98;;;9.70;;
43160;SDS011;40968;52.342;5.528;2023-06-26T00:15:47;17.67;;;9.65;;
43160;SDS011;40968;52.342;5.528;2023-06-26T00:18:14;29.75;;;10.68;;
43160;SDS011;40968;52.342;5.528;2023-06-26T00:20:40;18.92;;;9.18;;
43160;SDS011;40968;52.342;5.528;2023-06-26T00:23:07;20.50;;;9.60;;
43160;SDS011;40968;52.342;5.528;2023-06-26T00:25:34;21.88;;;10.57;;
43160;SDS011;40968;52.342;5.528;2023-06-26T00:28:01;20.50;;;10.57;;
43160;SDS011;40968;52.342;5.528;2023-06-26T00:30:27;20.10;;;10.07;;
43160;SDS011;40968;52.342;5.528;2023-06-26T00:32:55;20.33;;;10.15;;
43160;SDS011;40968;52.342;5.528;2023-06-26T00:35:22;23.23;;;10.35;;
43160;SDS011;40968;52.342;5.528;2023-06-26T00:37:49;23.17;;;10.52;;
43160;SDS011;40968;52.342;5.528;2023-06-26T00:40:16;21.30;;;10.18;;
43160;SDS011;40968;52.342;5.528;2023-06-26T00:42:43;22.13;;;10.75;;
43160;SDS011;40968;52.342;5.528;2023-06-26T00:45:09;21.27;;;10.75;;
43160;SDS011;40968;52.342;5.528;2023-06-26T00:47:36;22.17;;;10.20;;
43160;SDS011;40968;52.342;5.528;2023-06-26T00:50:05;17.00;;;9.55;;
43160;SDS011;40968;52.342;5.528;2023-06-26T00:52:32;18.60;;;9.50;;
43160;SDS011;40968;52.342;5.528;2023-06-26T00:54:59;20.55;;;10.50;;
43160;SDS011;40968;52.342;5.528;2023-06-26T00:57:26;22.70;;;10.77;;
43160;SDS011;40968;52.342;5.528;2023-06-26T00:59:53;20.77;;;10.77;;
43160;SDS011;40968;52.342;5.528;2023-06-26T01:02:20;21.08;;;10.10;;
43160;SDS011;40968;52.342;5.528;2023-06-26T01:04:47;24.27;;;10.68;;
43160;SDS011;40968;52.342;5.528;2023-06-26T01:07:15;21.77;;;10.75;;
43160;SDS011;40968;52.342;5.528;2023-06-26T01:09:43;22.17;;;10.02;;
43160;SDS011;40968;52.342;5.528;2023-06-26T01:12:12;20.85;;;10.60;;
43160;SDS011;40968;52.342;5.528;2023-06-26T01:14:39;26.05;;;11.15;;
43160;SDS011;40968;52.342;5.528;2023-06-26T01:17:05;22.67;;;11.10;;
43160;SDS011;40968;52.342;5.528;2023-06-26T01:19:36;18.92;;;9.85;;
43160;SDS011;40968;52.342;5.528;2023-06-26T01:22:07;22.30;;;10.55;;
43160;SDS011;40968;52.342;5.528;2023-06-26T01:24:45;19.92;;;9.55;;
43160;SDS011;40968;52.342;5.528;2023-06-26T01:27:24;22.67;;;10.48;;
43160;SDS011;40968;52.342;5.528;2023-06-26T01:29:52;25.25;;;9.88;;
43160;SDS011;40968;52.342;5.528;2023-06-26T01:32:20;24.15;;;10.00;;
43160;SDS011;40968;52.342;5.528;2023-06-26T01:34:48;20.00;;;8.57;;
43160;SDS011;40968;52.342;5.528;2023-06-26T01:37:15;16.83;;;8.25;;
43160;SDS011;40968;52.342;5.528;2023-06-26T01:39:42;15.23;;;8.30;;
43160;SDS011;40968;52.342;5.528;2023-06-26T01:42:08;17.23;;;7.53;;
43160;SDS011;40968;52.342;5.528;2023-06-26T01:44:37;20.52;;;7.57;;
43160;SDS011;40968;52.342;5.528;2023-06-26T01:47:10;18.73;;;7.15;;
43160;SDS011;40968;52.342;5.528;2023-06-26T01:49:43;19.33;;;6.78;;
43160;SDS011;40968;52.342;5.528;2023-06-26T01:52:15;22.40;;;6.50;;
43160;SDS011;40968;52.342;5.528;2023-06-26T01:54:48;14.45;;;5.57;;
43160;SDS011;40968;52.342;5.528;2023-06-26T01:57:20;15.80;;;6.15;;
43160;SDS011;40968;52.342;5.528;2023-06-26T01:59:50;14.10;;;5.63;;
43160;SDS011;40968;52.342;5.528;2023-06-26T02:02:18;14.68;;;5.00;;
43160;SDS011;40968;52.342;5.528;2023-06-26T02:04:44;10.48;;;4.60;;
43160;SDS011;40968;52.342;5.528;2023-06-26T02:07:13;15.18;;;4.78;;
43160;SDS011;40968;52.342;5.528;2023-06-26T02:09:40;12.27;;;4.70;;
43160;SDS011;40968;52.342;5.528;2023-06-26T02:12:07;11.35;;;4.82;;
43160;SDS011;40968;52.342;5.528;2023-06-26T02:14:34;12.77;;;4.82;;
43160;SDS011;40968;52.342;5.528;2023-06-26T02:17:02;12.32;;;4.78;;
43160;SDS011;40968;52.342;5.528;2023-06-26T02:19:29;11.02;;;5.00;;
43160;SDS011;40968;52.342;5.528;2023-06-26T02:21:55;14.85;;;4.70;;
43160;SDS011;40968;52.342;5.528;2023-06-26T02:24:22;14.15;;;4.72;;
43160;SDS011;40968;52.342;5.528;2023-06-26T02:26:49;12.75;;;4.70;;
43160;SDS011;40968;52.342;5.528;2023-06-26T02:29:16;9.25;;;4.13;;
43160;SDS011;40968;52.342;5.528;2023-06-26T02:31:42;13.68;;;4.93;;
43160;SDS011;40968;52.342;5.528;2023-06-26T02:34:11;19.25;;;5.20;;
43160;SDS011;40968;52.342;5.528;2023-06-26T02:36:37;15.05;;;4.40;;
43160;SDS011;40968;52.342;5.528;2023-06-26T02:39:04;12.70;;;4.82;;
43160;SDS011;40968;52.342;5.528;2023-06-26T02:41:31;16.70;;;4.90;;
43160;SDS011;40968;52.342;5.528;2023-06-26T02:43:58;16.25;;;5.10;;
43160;SDS011;40968;52.342;5.528;2023-06-26T02:46:24;23.60;;;5.43;;
43160;SDS011;40968;52.342;5.528;2023-06-26T02:48:51;16.67;;;4.97;;
43160;SDS011;40968;52.342;5.528;2023-06-26T02:51:19;23.65;;;5.03;;
43160;SDS011;40968;52.342;5.528;2023-06-26T02:53:46;12.65;;;4.50;;
43160;SDS011;40968;52.342;5.528;2023-06-26T02:56:12;10.40;;;4.93;;
43160;SDS011;40968;52.342;5.528;2023-06-26T02:58:39;17.42;;;4.97;;
43160;SDS011;40968;52.342;5.528;2023-06-26T03:01:06;18.45;;;4.90;;
43160;SDS011;40968;52.342;5.528;2023-06-26T03:03:33;18.02;;;4.82;;
43160;SDS011;40968;52.342;5.528;2023-06-26T03:06:05;19.73;;;5.90;;
43160;SDS011;40968;52.342;5.528;2023-06-26T03:08:35;16.10;;;5.15;;
43160;SDS011;40968;52.342;5.528;2023-06-26T03:11:03;25.13;;;6.15;;
43160;SDS011;40968;52.342;5.528;2023-06-26T03:13:30;19.27;;;4.53;;
43160;SDS011;40968;52.342;5.528;2023-06-26T03:15:56;14.85;;;5.40;;
43160;SDS011;40968;52.342;5.528;2023-06-26T03:18:23;18.90;;;5.47;;
43160;SDS011;40968;52.342;5.528;2023-06-26T03:20:50;14.68;;;4.65;;
43160;SDS011;40968;52.342;5.528;2023-06-26T03:23:19;17.15;;;5.75;;
43160;SDS011;40968;52.342;5.528;2023-06-26T03:25:47;15.48;;;5.20;;
43160;SDS011;40968;52.342;5.528;2023-06-26T03:28:13;25.52;;;5.88;;
43160;SDS011;40968;52.342;5.528;2023-06-26T03:30:40;13.55;;;5.57;;
43160;SDS011;40968;52.342;5.528;2023-06-26T03:33:07;15.75;;;4.88;;
43160;SDS011;40968;52.342;5.528;2023-06-26T03:35:34;19.95;;;5.53;;
43160;SDS011;40968;52.342;5.528;2023-06-26T03:38:00;20.58;;;5.15;;
43160;SDS011;40968;52.342;5.528;2023-06-26T03:40:27;18.85;;;5.72;;
43160;SDS011;40968;52.342;5.528;2023-06-26T03:42:55;17.50;;;5.50;;
43160;SDS011;40968;52.342;5.528;2023-06-26T03:45:22;17.30;;;5.47;;
43160;SDS011;40968;52.342;5.528;2023-06-26T03:47:49;17.85;;;5.47;;
43160;SDS011;40968;52.342;5.528;2023-06-26T03:50:16;17.48;;;5.55;;
43160;SDS011;40968;52.342;5.528;2023-06-26T03:52:42;19.98;;;5.30;;
43160;SDS011;40968;52.342;5.528;2023-06-26T03:55:09;23.35;;;5.82;;
43160;SDS011;40968;52.342;5.528;2023-06-26T03:57:36;24.30;;;6.30;;
43160;SDS011;40968;52.342;5.528;2023-06-26T04:00:04;18.75;;;5.55;;
43160;SDS011;40968;52.342;5.528;2023-06-26T04:05:00;30.20;;;6.78;;
43160;SDS011;40968;52.342;5.528;2023-06-26T04:07:27;18.70;;;5.45;;
43160;SDS011;40968;52.342;5.528;2023-06-26T04:09:53;19.52;;;6.25;;
43160;SDS011;40968;52.342;5.528;2023-06-26T04:12:20;20.02;;;6.28;;
43160;SDS011;40968;52.342;5.528;2023-06-26T04:14:47;22.02;;;5.82;;
43160;SDS011;40968;52.342;5.528;2023-06-26T04:17:15;25.45;;;6.60;;
43160;SDS011;40968;52.342;5.528;2023-06-26T04:19:41;21.73;;;5.95;;
43160;SDS011;40968;52.342;5.528;2023-06-26T04:22:08;27.83;;;6.00;;
43160;SDS011;40968;52.342;5.528;2023-06-26T04:24:35;22.42;;;6.20;;
43160;SDS011;40968;52.342;5.528;2023-06-26T04:27:02;22.00;;;6.13;;
43160;SDS011;40968;52.342;5.528;2023-06-26T04:29:29;20.42;;;6.10;;
43160;SDS011;40968;52.342;5.528;2023-06-26T04:31:55;29.65;;;5.82;;
43160;SDS011;40968;52.342;5.528;2023-06-26T04:34:24;17.05;;;5.18;;
43160;SDS011;40968;52.342;5.528;2023-06-26T04:36:51;25.33;;;6.15;;
43160;SDS011;40968;52.342;5.528;2023-06-26T04:39:18;17.75;;;5.38;;
43160;SDS011;40968;52.342;5.528;2023-06-26T04:41:45;20.80;;;5.50;;
43160;SDS011;40968;52.342;5.528;2023-06-26T04:44:11;19.20;;;5.88;;
43160;SDS011;40968;52.342;5.528;2023-06-26T04:46:38;19.77;;;5.88;;
43160;SDS011;40968;52.342;5.528;2023-06-26T04:49:06;22.85;;;5.80;;
43160;SDS011;40968;52.342;5.528;2023-06-26T04:51:34;16.10;;;5.80;;
43160;SDS011;40968;52.342;5.528;2023-06-26T04:54:05;22.58;;;5.40;;
43160;SDS011;40968;52.342;5.528;2023-06-26T04:56:32;20.98;;;5.35;;
43160;SDS011;40968;52.342;5.528;2023-06-26T04:58:59;17.42;;;5.47;;
43160;SDS011;40968;52.342;5.528;2023-06-26T05:01:25;15.65;;;5.35;;
43160;SDS011;40968;52.342;5.528;2023-06-26T05:03:54;13.75;;;4.38;;
43160;SDS011;40968;52.342;5.528;2023-06-26T05:06:21;10.50;;;3.63;;
43160;SDS011;40968;52.342;5.528;2023-06-26T05:08:49;10.70;;;3.72;;
43160;SDS011;40968;52.342;5.528;2023-06-26T05:11:16;9.55;;;3.53;;
43160;SDS011;40968;52.342;5.528;2023-06-26T05:13:43;9.20;;;3.17;;
43160;SDS011;40968;52.342;5.528;2023-06-26T05:16:09;8.45;;;2.83;;
43160;SDS011;40968;52.342;5.528;2023-06-26T05:18:36;8.05;;;3.22;;
43160;SDS011;40968;52.342;5.528;2023-06-26T05:21:03;11.15;;;3.60;;
43160;SDS011;40968;52.342;5.528;2023-06-26T05:23:31;8.10;;;3.05;;
43160;SDS011;40968;52.342;5.528;2023-06-26T05:26:00;9.68;;;3.15;;
43160;SDS011;40968;52.342;5.528;2023-06-26T05:28:28;9.73;;;3.13;;
43160;SDS011;40968;52.342;5.528;2023-06-26T05:30:56;7.35;;;2.90;;
43160;SDS011;40968;52.342;5.528;2023-06-26T05:33:23;12.57;;;2.97;;
43160;SDS011;40968;52.342;5.528;2023-06-26T05:35:52;6.70;;;2.40;;
43160;SDS011;40968;52.342;5.528;2023-06-26T05:38:20;7.45;;;2.60;;
43160;SDS011;40968;52.342;5.528;2023-06-26T05:40:47;6.82;;;2.85;;
43160;SDS011;40968;52.342;5.528;2023-06-26T05:43:16;7.45;;;2.53;;
43160;SDS011;40968;52.342;5.528;2023-06-26T05:45:46;6.78;;;2.50;;
43160;SDS011;40968;52.342;5.528;2023-06-26T05:48:13;6.93;;;2.92;;
43160;SDS011;40968;52.342;5.528;2023-06-26T05:50:40;11.70;;;3.20;;
43160;SDS011;40968;52.342;5.528;2023-06-26T05:53:09;7.75;;;2.97;;
43160;SDS011;40968;52.342;5.528;2023-06-26T05:55:36;8.18;;;2.53;;
43160;SDS011;40968;52.342;5.528;2023-06-26T05:58:03;8.15;;;2.38;;
43160;SDS011;40968;52.342;5.528;2023-06-26T06:00:32;7.65;;;3.58;;
43160;SDS011;40968;52.342;5.528;2023-06-26T06:02:59;5.07;;;2.33;;
43160;SDS011;40968;52.342;5.528;2023-06-26T06:05:26;10.20;;;2.45;;
43160;SDS011;40968;52.342;5.528;2023-06-26T06:07:53;6.25;;;2.30;;
43160;SDS011;40968;52.342;5.528;2023-06-26T06:10:19;6.50;;;1.98;;
43160;SDS011;40968;52.342;5.528;2023-06-26T06:12:46;6.65;;;2.35;;
43160;SDS011;40968;52.342;5.528;2023-06-26T06:15:12;10.95;;;2.00;;
43160;SDS011;40968;52.342;5.528;2023-06-26T06:17:41;11.88;;;2.30;;
43160;SDS011;40968;52.342;5.528;2023-06-26T06:20:08;7.50;;;2.50;;
43160;SDS011;40968;52.342;5.528;2023-06-26T06:22:35;12.77;;;2.70;;
43160;SDS011;40968;52.342;5.528;2023-06-26T06:25:01;9.07;;;2.53;;
43160;SDS011;40968;52.342;5.528;2023-06-26T06:27:28;11.27;;;2.83;;
43160;SDS011;40968;52.342;5.528;2023-06-26T06:29:56;10.25;;;2.78;;
43160;SDS011;40968;52.342;5.528;2023-06-26T06:32:22;8.48;;;3.13;;
43160;SDS011;40968;52.342;5.528;2023-06-26T06:34:50;14.02;;;2.83;;
43160;SDS011;40968;52.342;5.528;2023-06-26T06:37:17;10.23;;;2.60;;
43160;SDS011;40968;52.342;5.528;2023-06-26T06:39:44;6.43;;;2.35;;
43160;SDS011;40968;52.342;5.528;2023-06-26T06:42:10;7.55;;;2.42;;
43160;SDS011;40968;52.342;5.528;2023-06-26T06:44:37;11.07;;;2.70;;
43160;SDS011;40968;52.342;5.528;2023-06-26T06:47:04;8.48;;;2.63;;
43160;SDS011;40968;52.342;5.528;2023-06-26T06:49:30;9.82;;;2.53;;
43160;SDS011;40968;52.342;5.528;2023-06-26T06:51:58;7.78;;;2.38;;
43160;SDS011;40968;52.342;5.528;2023-06-26T06:54:25;10.23;;;2.40;;
43160;SDS011;40968;52.342;5.528;2023-06-26T06:56:53;6.40;;;2.30;;
43160;SDS011;40968;52.342;5.528;2023-06-26T06:59:20;10.77;;;2.85;;
43160;SDS011;40968;52.342;5.528;2023-06-26T07:01:46;9.60;;;2.30;;
43160;SDS011;40968;52.342;5.528;2023-06-26T07:04:13;9.00;;;2.53;;
43160;SDS011;40968;52.342;5.528;2023-06-26T07:06:40;10.52;;;2.53;;
43160;SDS011;40968;52.342;5.528;2023-06-26T07:09:08;9.23;;;3.03;;
43160;SDS011;40968;52.342;5.528;2023-06-26T07:11:34;8.65;;;2.63;;
43160;SDS011;40968;52.342;5.528;2023-06-26T07:14:01;7.10;;;2.60;;
43160;SDS011;40968;52.342;5.528;2023-06-26T07:16:28;13.50;;;2.92;;
43160;SDS011;40968;52.342;5.528;2023-06-26T07:18:55;5.63;;;2.60;;
43160;SDS011;40968;52.342;5.528;2023-06-26T07:21:22;11.88;;;2.85;;
43160;SDS011;40968;52.342;5.528;2023-06-26T07:23:49;7.63;;;2.80;;
43160;SDS011;40968;52.342;5.528;2023-06-26T07:26:17;9.90;;;2.70;;
43160;SDS011;40968;52.342;5.528;2023-06-26T07:28:43;13.20;;;2.80;;
43160;SDS011;40968;52.342;5.528;2023-06-26T07:31:10;6.50;;;2.92;;
43160;SDS011;40968;52.342;5.528;2023-06-26T07:33:37;7.85;;;3.45;;
43160;SDS011;40968;52.342;5.528;2023-06-26T07:36:03;10.50;;;3.15;;
43160;SDS011;40968;52.342;5.528;2023-06-26T07:38:30;9.75;;;3.03;;
43160;SDS011;40968;52.342;5.528;2023-06-26T07:40:57;9.82;;;2.65;;
43160;SDS011;40968;52.342;5.528;2023-06-26T07:43:26;11.45;;;3.85;;
43160;SDS011;40968;52.342;5.528;2023-06-26T07:45:52;11.95;;;3.58;;
43160;SDS011;40968;52.342;5.528;2023-06-26T07:48:19;19.05;;;3.92;;
43160;SDS011;40968;52.342;5.528;2023-06-26T07:50:46;7.97;;;3.33;;
43160;SDS011;40968;52.342;5.528;2023-06-26T07:53:13;9.27;;;3.45;;
43160;SDS011;40968;52.342;5.528;2023-06-26T07:55:39;13.35;;;3.30;;
43160;SDS011;40968;52.342;5.528;2023-06-26T07:58:06;12.05;;;3.63;;
43160;SDS011;40968;52.342;5.528;2023-06-26T08:00:35;11.10;;;3.15;;
43160;SDS011;40968;52.342;5.528;2023-06-26T08:03:01;8.27;;;3.08;;
43160;SDS011;40968;52.342;5.528;2023-06-26T08:05:28;8.38;;;3.20;;
43160;SDS011;40968;52.342;5.528;2023-06-26T08:07:55;11.02;;;3.40;;
43160;SDS011;40968;52.342;5.528;2023-06-26T08:10:21;11.90;;;3.15;;
43160;SDS011;40968;52.342;5.528;2023-06-26T08:12:48;17.13;;;3.67;;
43160;SDS011;40968;52.342;5.528;2023-06-26T08:15:16;10.32;;;2.97;;
43160;SDS011;40968;52.342;5.528;2023-06-26T08:17:44;9.55;;;3.30;;
43160;SDS011;40968;52.342;5.528;2023-06-26T08:20:11;12.30;;;3.75;;
43160;SDS011;40968;52.342;5.528;2023-06-26T08:22:39;11.73;;;3.30;;
43160;SDS011;40968;52.342;5.528;2023-06-26T08:25:06;12.73;;;4.22;;
43160;SDS011;40968;52.342;5.528;2023-06-26T08:27:33;13.18;;;3.78;;
43160;SDS011;40968;52.342;5.528;2023-06-26T08:30:00;14.30;;;3.65;;
43160;SDS011;40968;52.342;5.528;2023-06-26T08:32:27;10.02;;;3.92;;
43160;SDS011;40968;52.342;5.528;2023-06-26T08:34:55;11.13;;;3.92;;
43160;SDS011;40968;52.342;5.528;2023-06-26T08:37:21;8.60;;;3.55;;
43160;SDS011;40968;52.342;5.528;2023-06-26T08:39:48;11.93;;;3.40;;
43160;SDS011;40968;52.342;5.528;2023-06-26T08:42:15;11.27;;;3.33;;
43160;SDS011;40968;52.342;5.528;2023-06-26T08:44:42;8.68;;;3.42;;
43160;SDS011;40968;52.342;5.528;2023-06-26T08:47:09;7.45;;;2.97;;
43160;SDS011;40968;52.342;5.528;2023-06-26T08:49:42;12.98;;;3.33;;
43160;SDS011;40968;52.342;5.528;2023-06-26T08:52:19;10.45;;;3.10;;
43160;SDS011;40968;52.342;5.528;2023-06-26T08:54:50;12.93;;;3.35;;
43160;SDS011;40968;52.342;5.528;2023-06-26T08:57:21;5.65;;;2.47;;
43160;SDS011;40968;52.342;5.528;2023-06-26T08:59:49;10.57;;;3.33;;
43160;SDS011;40968;52.342;5.528;2023-06-26T09:02:17;16.92;;;2.90;;
43160;SDS011;40968;52.342;5.528;2023-06-26T09:04:46;9.93;;;3.30;;
43160;SDS011;40968;52.342;5.528;2023-06-26T09:07:13;9.38;;;2.65;;
43160;SDS011;40968;52.342;5.528;2023-06-26T09:09:42;8.27;;;2.80;;
43160;SDS011;40968;52.342;5.528;2023-06-26T09:12:08;11.10;;;2.72;;
43160;SDS011;40968;52.342;5.528;2023-06-26T09:14:36;9.60;;;2.80;;
43160;SDS011;40968;52.342;5.528;2023-06-26T09:17:03;6.43;;;2.30;;
43160;SDS011;40968;52.342;5.528;2023-06-26T09:19:30;7.75;;;2.40;;
43160;SDS011;40968;52.342;5.528;2023-06-26T09:21:57;6.18;;;2.15;;
43160;SDS011;40968;52.342;5.528;2023-06-26T09:24:24;9.98;;;2.10;;
43160;SDS011;40968;52.342;5.528;2023-06-26T09:26:52;9.63;;;2.40;;
43160;SDS011;40968;52.342;5.528;2023-06-26T09:29:19;9.52;;;2.28;;
43160;SDS011;40968;52.342;5.528;2023-06-26T09:31:46;11.38;;;2.10;;
43160;SDS011;40968;52.342;5.528;2023-06-26T09:34:13;6.93;;;2.35;;
43160;SDS011;40968;52.342;5.528;2023-06-26T09:36:40;6.75;;;2.28;;
43160;SDS011;40968;52.342;5.528;2023-06-26T09:39:11;7.85;;;2.40;;
43160;SDS011;40968;52.342;5.528;2023-06-26T09:41:40;12.32;;;2.67;;
43160;SDS011;40968;52.342;5.528;2023-06-26T09:44:10;10.23;;;2.42;;
43160;SDS011;40968;52.342;5.528;2023-06-26T09:46:37;10.98;;;2.47;;
43160;SDS011;40968;52.342;5.528;2023-06-26T09:49:05;8.73;;;3.00;;
43160;SDS011;40968;52.342;5.528;2023-06-26T09:51:33;7.20;;;2.50;;
43160;SDS011;40968;52.342;5.528;2023-06-26T09:54:00;10.55;;;2.80;;
43160;SDS011;40968;52.342;5.528;2023-06-26T09:56:28;6.43;;;2.58;;
43160;SDS011;40968;52.342;5.528;2023-06-26T09:58:55;7.38;;;2.53;;
43160;SDS011;40968;52.342;5.528;2023-06-26T10:01:24;4.95;;;2.08;;
43160;SDS011;40968;52.342;5.528;2023-06-26T10:03:53;9.90;;;2.33;;
43160;SDS011;40968;52.342;5.528;2023-06-26T10:06:22;9.70;;;2.45;;
43160;SDS011;40968;52.342;5.528;2023-06-26T10:08:53;7.88;;;2.42;;
43160;SDS011;40968;52.342;5.528;2023-06-26T10:11:21;7.20;;;1.92;;
43160;SDS011;40968;52.342;5.528;2023-06-26T10:13:49;5.90;;;1.70;;
43160;SDS011;40968;52.342;5.528;2023-06-26T10:16:18;13.25;;;2.30;;
43160;SDS011;40968;52.342;5.528;2023-06-26T10:18:51;5.82;;;2.45;;
43160;SDS011;40968;52.342;5.528;2023-06-26T10:21:20;9.98;;;2.53;;
43160;SDS011;40968;52.342;5.528;2023-06-26T10:23:49;5.32;;;2.00;;
43160;SDS011;40968;52.342;5.528;2023-06-26T10:26:18;5.30;;;2.28;;
43160;SDS011;40968;52.342;5.528;2023-06-26T10:28:48;6.90;;;1.80;;
43160;SDS011;40968;52.342;5.528;2023-06-26T10:31:17;4.93;;;1.40;;
43160;SDS011;40968;52.342;5.528;2023-06-26T10:33:47;7.10;;;2.00;;
43160;SDS011;40968;52.342;5.528;2023-06-26T10:36:17;7.65;;;1.92;;
43160;SDS011;40968;52.342;5.528;2023-06-26T10:38:51;3.95;;;1.75;;
43160;SDS011;40968;52.342;5.528;2023-06-26T10:41:22;7.38;;;1.58;;
43160;SDS011;40968;52.342;5.528;2023-06-26T10:43:49;6.22;;;1.65;;
43160;SDS011;40968;52.342;5.528;2023-06-26T10:46:17;6.15;;;1.45;;
43160;SDS011;40968;52.342;5.528;2023-06-26T10:48:55;4.30;;;1.67;;
43160;SDS011;40968;52.342;5.528;2023-06-26T10:51:25;4.07;;;1.50;;
43160;SDS011;40968;52.342;5.528;2023-06-26T10:53:53;10.02;;;1.50;;
43160;SDS011;40968;52.342;5.528;2023-06-26T10:56:21;6.72;;;1.30;;
43160;SDS011;40968;52.342;5.528;2023-06-26T10:59:10;6.03;;;1.27;;
43160;SDS011;40968;52.342;5.528;2023-06-26T11:01:40;5.95;;;1.75;;
43160;SDS011;40968;52.342;5.528;2023-06-26T11:04:08;4.35;;;1.30;;
43160;SDS011;40968;52.342;5.528;2023-06-26T11:06:44;4.80;;;1.40;;
43160;SDS011;40968;52.342;5.528;2023-06-26T11:09:14;4.53;;;1.30;;
43160;SDS011;40968;52.342;5.528;2023-06-26T11:12:00;7.50;;;1.70;;
43160;SDS011;40968;52.342;5.528;2023-06-26T11:14:33;6.05;;;1.77;;
43160;SDS011;40968;52.342;5.528;2023-06-26T11:17:02;6.65;;;1.67;;
43160;SDS011;40968;52.342;5.528;2023-06-26T11:19:29;4.65;;;1.35;;
43160;SDS011;40968;52.342;5.528;2023-06-26T11:22:01;7.70;;;1.50;;
43160;SDS011;40968;52.342;5.528;2023-06-26T11:24:30;4.50;;;1.30;;
43160;SDS011;40968;52.342;5.528;2023-06-26T11:27:01;3.33;;;1.27;;
43160;SDS011;40968;52.342;5.528;2023-06-26T11:29:29;3.92;;;1.40;;
43160;SDS011;40968;52.342;5.528;2023-06-26T11:32:01;4.55;;;1.95;;
43160;SDS011;40968;52.342;5.528;2023-06-26T11:34:30;4.93;;;1.48;;
43160;SDS011;40968;52.342;5.528;2023-06-26T11:36:57;6.75;;;1.60;;
43160;SDS011;40968;52.342;5.528;2023-06-26T11:39:27;3.58;;;1.30;;
43160;SDS011;40968;52.342;5.528;2023-06-26T11:41:54;5.80;;;1.23;;
43160;SDS011;40968;52.342;5.528;2023-06-26T11:44:21;3.33;;;1.10;;
43160;SDS011;40968;52.342;5.528;2023-06-26T11:46:51;4.10;;;1.00;;
43160;SDS011;40968;52.342;5.528;2023-06-26T11:49:20;6.60;;;1.38;;
43160;SDS011;40968;52.342;5.528;2023-06-26T11:51:48;7.82;;;1.50;;
43160;SDS011;40968;52.342;5.528;2023-06-26T11:54:15;3.30;;;1.30;;
43160;SDS011;40968;52.342;5.528;2023-06-26T11:56:43;3.70;;;1.30;;
43160;SDS011;40968;52.342;5.528;2023-06-26T11:59:17;4.40;;;1.40;;
43160;SDS011;40968;52.342;5.528;2023-06-26T12:01:44;12.00;;;1.52;;
43160;SDS011;40968;52.342;5.528;2023-06-26T12:04:12;9.70;;;1.30;;
43160;SDS011;40968;52.342;5.528;2023-06-26T12:06:42;9.43;;;1.38;;
43160;SDS011;40968;52.342;5.528;2023-06-26T12:09:12;4.50;;;1.50;;
43160;SDS011;40968;52.342;5.528;2023-06-26T12:11:41;9.50;;;1.30;;
43160;SDS011;40968;52.342;5.528;2023-06-26T12:14:12;9.07;;;1.23;;
43160;SDS011;40968;52.342;5.528;2023-06-26T12:16:39;6.22;;;1.60;;
43160;SDS011;40968;52.342;5.528;2023-06-26T12:19:07;6.30;;;1.50;;
43160;SDS011;40968;52.342;5.528;2023-06-26T12:21:49;8.13;;;1.75;;
43160;SDS011;40968;52.342;5.528;2023-06-26T12:24:18;5.65;;;1.58;;
43160;SDS011;40968;52.342;5.528;2023-06-26T12:26:49;6.00;;;1.75;;
43160;SDS011;40968;52.342;5.528;2023-06-26T12:29:19;5.40;;;1.52;;
43160;SDS011;40968;52.342;5.528;2023-06-26T12:31:48;3.63;;;1.38;;
43160;SDS011;40968;52.342;5.528;2023-06-26T12:34:18;4.53;;;1.65;;
43160;SDS011;40968;52.342;5.528;2023-06-26T12:36:46;5.50;;;1.63;;
43160;SDS011;40968;52.342;5.528;2023-06-26T12:39:15;9.73;;;1.88;;
43160;SDS011;40968;52.342;5.528;2023-06-26T12:41:47;5.32;;;1.23;;
43160;SDS011;40968;52.342;5.528;2023-06-26T12:44:18;6.13;;;1.30;;
43160;SDS011;40968;52.342;5.528;2023-06-26T12:46:46;6.13;;;1.75;;
43160;SDS011;40968;52.342;5.528;2023-06-26T12:49:14;4.22;;;1.20;;
43160;SDS011;40968;52.342;5.528;2023-06-26T12:51:41;5.20;;;1.05;;
43160;SDS011;40968;52.342;5.528;2023-06-26T12:54:08;7.22;;;1.40;;
43160;SDS011;40968;52.342;5.528;2023-06-26T12:56:35;7.93;;;1.48;;
43160;SDS011;40968;52.342;5.528;2023-06-26T12:59:03;8.15;;;1.70;;
43160;SDS011;40968;52.342;5.528;2023-06-26T13:01:30;5.70;;;1.60;;
43160;SDS011;40968;52.342;5.528;2023-06-26T13:03:57;6.43;;;1.67;;
43160;SDS011;40968;52.342;5.528;2023-06-26T13:06:24;5.20;;;1.90;;
43160;SDS011;40968;52.342;5.528;2023-06-26T13:08:51;7.95;;;1.83;;
43160;SDS011;40968;52.342;5.528;2023-06-26T13:11:18;5.97;;;1.27;;
43160;SDS011;40968;52.342;5.528;2023-06-26T13:13:46;9.07;;;1.80;;
43160;SDS011;40968;52.342;5.528;2023-06-26T13:16:14;5.70;;;1.90;;
43160;SDS011;40968;52.342;5.528;2023-06-26T13:18:43;4.38;;;2.00;;
43160;SDS011;40968;52.342;5.528;2023-06-26T13:21:10;9.38;;;1.90;;
43160;SDS011;40968;52.342;5.528;2023-06-26T13:23:37;5.03;;;1.90;;
43160;SDS011;40968;52.342;5.528;2023-06-26T13:26:04;4.25;;;1.50;;
43160;SDS011;40968;52.342;5.528;2023-06-26T13:28:31;14.43;;;1.90;;
43160;SDS011;40968;52.342;5.528;2023-06-26T13:30:58;5.93;;;1.50;;
43160;SDS011;40968;52.342;5.528;2023-06-26T13:33:26;6.50;;;1.40;;
43160;SDS011;40968;52.342;5.528;2023-06-26T13:35:52;6.22;;;1.73;;
43160;SDS011;40968;52.342;5.528;2023-06-26T13:38:19;8.00;;;1.70;;
43160;SDS011;40968;52.342;5.528;2023-06-26T13:40:49;8.48;;;1.90;;
43160;SDS011;40968;52.342;5.528;2023-06-26T13:43:16;9.50;;;1.92;;
43160;SDS011;40968;52.342;5.528;2023-06-26T13:45:43;6.13;;;1.70;;
43160;SDS011;40968;52.342;5.528;2023-06-26T13:48:09;4.45;;;1.38;;
43160;SDS011;40968;52.342;5.528;2023-06-26T13:50:37;8.27;;;2.00;;
43160;SDS011;40968;52.342;5.528;2023-06-26T13:53:04;7.88;;;1.50;;
43160;SDS011;40968;52.342;5.528;2023-06-26T13:55:31;5.30;;;1.75;;
43160;SDS011;40968;52.342;5.528;2023-06-26T13:57:57;5.10;;;1.33;;
43160;SDS011;40968;52.342;5.528;2023-06-26T14:00:24;2.88;;;1.42;;
43160;SDS011;40968;52.342;5.528;2023-06-26T14:02:51;2.78;;;1.65;;
43160;SDS011;40968;52.342;5.528;2023-06-26T14:05:18;3.70;;;1.55;;
43160;SDS011;40968;52.342;5.528;2023-06-26T14:07:46;6.22;;;1.85;;
43160;SDS011;40968;52.342;5.528;2023-06-26T14:10:12;6.40;;;1.75;;
43160;SDS011;40968;52.342;5.528;2023-06-26T14:12:40;5.38;;;1.30;;
43160;SDS011;40968;52.342;5.528;2023-06-26T14:15:07;5.90;;;1.30;;
43160;SDS011;40968;52.342;5.528;2023-06-26T14:17:34;3.85;;;1.30;;
43160;SDS011;40968;52.342;5.528;2023-06-26T14:20:01;4.20;;;1.25;;
43160;SDS011;40968;52.342;5.528;2023-06-26T14:22:30;7.00;;;1.38;;
43160;SDS011;40968;52.342;5.528;2023-06-26T14:24:59;4.32;;;1.30;;
43160;SDS011;40968;52.342;5.528;2023-06-26T14:27:26;5.65;;;1.35;;
43160;SDS011;40968;52.342;5.528;2023-06-26T14:29:53;4.35;;;1.40;;
43160;SDS011;40968;52.342;5.528;2023-06-26T14:32:19;7.35;;;1.42;;
43160;SDS011;40968;52.342;5.528;2023-06-26T14:34:46;6.50;;;1.38;;
43160;SDS011;40968;52.342;5.528;2023-06-26T14:37:12;4.80;;;1.40;;
43160;SDS011;40968;52.342;5.528;2023-06-26T14:39:39;6.05;;;1.80;;
43160;SDS011;40968;52.342;5.528;2023-06-26T14:42:07;2.45;;;1.10;;
43160;SDS011;40968;52.342;5.528;2023-06-26T14:44:34;4.30;;;1.40;;
43160;SDS011;40968;52.342;5.528;2023-06-26T14:47:01;6.82;;;1.20;;